sensor_id;sensor_type;location;lat;lon;timestamp;temperature;humidity
72591;SHT31;60625;51.212;5.952;2023-09-19T00:00:14;16.67;72.66
72591;SHT31;60625;51.212;5.952;2023-09-19T00:05:15;16.64;72.86
72591;SHT31;60625;51.212;5.952;2023-09-19T00:10:16;16.59;73.13
72591;SHT31;60625;51.212;5.952;2023-09-19T00:15:17;16.57;73.26
72591;SHT31;60625;51.212;5.952;2023-09-19T00:20:19;16.54;73.34
72591;SHT31;60625;51.212;5.952;2023-09-19T00:25:19;16.51;73.33
72591;SHT31;60625;51.212;5.952;2023-09-19T00:30:21;16.48;73.40
72591;SHT31;60625;51.212;5.952;2023-09-19T00:35:21;16.45;73.44
72591;SHT31;60625;51.212;5.952;2023-09-19T00:40:25;16.41;73.45
72591;SHT31;60625;51.212;5.952;2023-09-19T00:45:26;16.37;73.53
72591;SHT31;60625;51.212;5.952;2023-09-19T00:50:28;16.32;73.62
72591;SHT31;60625;51.212;5.952;2023-09-19T00:55:29;16.28;73.72
72591;SHT31;60625;51.212;5.952;2023-09-19T01:00:30;16.27;73.76
72591;SHT31;60625;51.212;5.952;2023-09-19T01:05:34;16.25;73.85
72591;SHT31;60625;51.212;5.952;2023-09-19T01:10:36;16.23;73.93
72591;SHT31;60625;51.212;5.952;2023-09-19T01:32:59;16.11;73.60
72591;SHT31;60625;51.212;5.952;2023-09-19T01:38:00;16.09;73.16
72591;SHT31;60625;51.212;5.952;2023-09-19T01:59:07;16.01;71.15
72591;SHT31;60625;51.212;5.952;2023-09-19T02:04:14;15.97;71.17
72591;SHT31;60625;51.212;5.952;2023-09-19T02:09:15;15.95;71.22
72591;SHT31;60625;51.212;5.952;2023-09-19T02:14:16;15.93;71.39
72591;SHT31;60625;51.212;5.952;2023-09-19T02:19:16;15.89;71.43
72591;SHT31;60625;51.212;5.952;2023-09-19T02:24:17;15.86;71.43
72591;SHT31;60625;51.212;5.952;2023-09-19T02:29:17;15.83;71.22
72591;SHT31;60625;51.212;5.952;2023-09-19T02:34:18;15.80;71.26
72591;SHT31;60625;51.212;5.952;2023-09-19T02:39:19;15.77;71.24
72591;SHT31;60625;51.212;5.952;2023-09-19T02:44:19;15.74;71.39
72591;SHT31;60625;51.212;5.952;2023-09-19T02:49:20;15.69;71.75
72591;SHT31;60625;51.212;5.952;2023-09-19T02:54:21;15.67;72.10
72591;SHT31;60625;51.212;5.952;2023-09-19T02:59:22;15.64;72.49
72591;SHT31;60625;51.212;5.952;2023-09-19T03:04:22;15.60;72.81
72591;SHT31;60625;51.212;5.952;2023-09-19T03:09:23;15.58;73.18
72591;SHT31;60625;51.212;5.952;2023-09-19T03:14:24;15.57;73.65
72591;SHT31;60625;51.212;5.952;2023-09-19T03:19:25;15.53;74.59
72591;SHT31;60625;51.212;5.952;2023-09-19T03:24:27;15.51;75.11
72591;SHT31;60625;51.212;5.952;2023-09-19T03:29:30;15.50;75.36
72591;SHT31;60625;51.212;5.952;2023-09-19T03:34:32;15.50;75.43
72591;SHT31;60625;51.212;5.952;2023-09-19T03:39:33;15.49;75.54
72591;SHT31;60625;51.212;5.952;2023-09-19T03:44:33;15.48;75.63
72591;SHT31;60625;51.212;5.952;2023-09-19T03:49:34;15.48;75.56
72591;SHT31;60625;51.212;5.952;2023-09-19T03:54:35;15.47;75.50
72591;SHT31;60625;51.212;5.952;2023-09-19T03:59:36;15.45;75.38
72591;SHT31;60625;51.212;5.952;2023-09-19T04:04:36;15.45;75.32
72591;SHT31;60625;51.212;5.952;2023-09-19T04:09:37;15.44;75.24
72591;SHT31;60625;51.212;5.952;2023-09-19T04:14:37;15.43;75.16
72591;SHT31;60625;51.212;5.952;2023-09-19T04:19:39;15.43;75.11
72591;SHT31;60625;51.212;5.952;2023-09-19T04:24:41;15.42;75.04
72591;SHT31;60625;51.212;5.952;2023-09-19T04:29:41;15.41;74.80
72591;SHT31;60625;51.212;5.952;2023-09-19T04:34:42;15.40;74.61
72591;SHT31;60625;51.212;5.952;2023-09-19T04:39:43;15.39;74.61
72591;SHT31;60625;51.212;5.952;2023-09-19T04:44:43;15.40;74.55
72591;SHT31;60625;51.212;5.952;2023-09-19T04:49:44;15.39;74.40
72591;SHT31;60625;51.212;5.952;2023-09-19T04:54:44;15.41;74.32
72591;SHT31;60625;51.212;5.952;2023-09-19T04:59:46;15.43;74.21
72591;SHT31;60625;51.212;5.952;2023-09-19T05:04:46;15.47;73.92
72591;SHT31;60625;51.212;5.952;2023-09-19T05:09:47;15.52;73.71
72591;SHT31;60625;51.212;5.952;2023-09-19T05:14:47;15.57;73.48
72591;SHT31;60625;51.212;5.952;2023-09-19T05:19:48;15.61;73.25
72591;SHT31;60625;51.212;5.952;2023-09-19T05:24:48;15.64;73.06
72591;SHT31;60625;51.212;5.952;2023-09-19T05:29:49;15.66;72.81
72591;SHT31;60625;51.212;5.952;2023-09-19T05:34:52;15.68;72.86
72591;SHT31;60625;51.212;5.952;2023-09-19T05:39:56;15.69;73.17
72591;SHT31;60625;51.212;5.952;2023-09-19T05:44:57;15.70;73.93
72591;SHT31;60625;51.212;5.952;2023-09-19T05:49:59;15.67;74.22
72591;SHT31;60625;51.212;5.952;2023-09-19T05:54:59;15.67;74.37
72591;SHT31;60625;51.212;5.952;2023-09-19T06:00:00;15.66;74.60
72591;SHT31;60625;51.212;5.952;2023-09-19T06:05:00;15.66;74.74
72591;SHT31;60625;51.212;5.952;2023-09-19T06:10:02;15.67;74.78
72591;SHT31;60625;51.212;5.952;2023-09-19T06:15:06;15.68;74.89
72591;SHT31;60625;51.212;5.952;2023-09-19T06:20:09;15.68;75.04
72591;SHT31;60625;51.212;5.952;2023-09-19T06:25:16;15.69;75.03
72591;SHT31;60625;51.212;5.952;2023-09-19T06:30:19;15.71;74.88
72591;SHT31;60625;51.212;5.952;2023-09-19T06:35:24;15.73;74.88
72591;SHT31;60625;51.212;5.952;2023-09-19T06:40:26;15.79;74.86
72591;SHT31;60625;51.212;5.952;2023-09-19T06:45:28;15.82;74.78
72591;SHT31;60625;51.212;5.952;2023-09-19T06:50:28;15.86;74.76
72591;SHT31;60625;51.212;5.952;2023-09-19T06:55:31;15.90;74.60
72591;SHT31;60625;51.212;5.952;2023-09-19T07:00:32;15.94;74.57
72591;SHT31;60625;51.212;5.952;2023-09-19T07:05:36;16.01;74.45
72591;SHT31;60625;51.212;5.952;2023-09-19T07:10:39;16.08;74.40
72591;SHT31;60625;51.212;5.952;2023-09-19T07:15:42;16.15;74.14
72591;SHT31;60625;51.212;5.952;2023-09-19T07:20:47;16.25;73.89
72591;SHT31;60625;51.212;5.952;2023-09-19T07:25:50;16.33;73.77
72591;SHT31;60625;51.212;5.952;2023-09-19T07:30:50;16.42;73.47
72591;SHT31;60625;51.212;5.952;2023-09-19T07:35:50;16.52;73.35
72591;SHT31;60625;51.212;5.952;2023-09-19T07:40:52;16.64;72.89
72591;SHT31;60625;51.212;5.952;2023-09-19T07:45:52;16.72;72.51
72591;SHT31;60625;51.212;5.952;2023-09-19T07:50:53;16.82;72.25
72591;SHT31;60625;51.212;5.952;2023-09-19T07:56:01;16.94;71.95
72591;SHT31;60625;51.212;5.952;2023-09-19T08:01:06;17.04;71.56
72591;SHT31;60625;51.212;5.952;2023-09-19T08:06:07;17.17;71.21
72591;SHT31;60625;51.212;5.952;2023-09-19T08:11:08;17.31;71.15
72591;SHT31;60625;51.212;5.952;2023-09-19T08:16:19;17.50;70.67
72591;SHT31;60625;51.212;5.952;2023-09-19T08:21:22;17.63;70.18
72591;SHT31;60625;51.212;5.952;2023-09-19T08:26:24;17.78;69.39
72591;SHT31;60625;51.212;5.952;2023-09-19T08:31:25;17.82;68.78
72591;SHT31;60625;51.212;5.952;2023-09-19T08:36:26;17.95;69.08
72591;SHT31;60625;51.212;5.952;2023-09-19T08:41:27;18.08;68.30
72591;SHT31;60625;51.212;5.952;2023-09-19T08:46:27;18.16;68.07
72591;SHT31;60625;51.212;5.952;2023-09-19T08:51:41;18.28;68.05
72591;SHT31;60625;51.212;5.952;2023-09-19T08:56:46;18.44;67.50
72591;SHT31;60625;51.212;5.952;2023-09-19T09:01:48;18.54;66.71
72591;SHT31;60625;51.212;5.952;2023-09-19T09:06:51;18.66;66.57
72591;SHT31;60625;51.212;5.952;2023-09-19T09:11:55;18.79;65.81
72591;SHT31;60625;51.212;5.952;2023-09-19T09:16:56;18.93;65.48
72591;SHT31;60625;51.212;5.952;2023-09-19T09:22:09;19.04;65.46
72591;SHT31;60625;51.212;5.952;2023-09-19T09:27:11;19.13;64.61
72591;SHT31;60625;51.212;5.952;2023-09-19T09:32:16;19.11;63.33
72591;SHT31;60625;51.212;5.952;2023-09-19T09:37:19;19.18;63.14
72591;SHT31;60625;51.212;5.952;2023-09-19T09:42:28;19.33;63.11
72591;SHT31;60625;51.212;5.952;2023-09-19T09:48:08;19.47;62.97
72591;SHT31;60625;51.212;5.952;2023-09-19T09:58:26;19.30;62.13
72591;SHT31;60625;51.212;5.952;2023-09-19T10:03:33;19.28;62.81
72591;SHT31;60625;51.212;5.952;2023-09-19T10:08:38;19.45;63.08
72591;SHT31;60625;51.212;5.952;2023-09-19T10:13:39;19.55;63.04
72591;SHT31;60625;51.212;5.952;2023-09-19T10:18:42;19.65;62.49
72591;SHT31;60625;51.212;5.952;2023-09-19T10:23:44;19.64;61.47
72591;SHT31;60625;51.212;5.952;2023-09-19T10:28:46;19.69;61.49
72591;SHT31;60625;51.212;5.952;2023-09-19T10:33:50;19.81;60.85
72591;SHT31;60625;51.212;5.952;2023-09-19T10:38:54;19.95;60.88
72591;SHT31;60625;51.212;5.952;2023-09-19T10:43:58;20.13;60.01
72591;SHT31;60625;51.212;5.952;2023-09-19T10:49:00;20.26;59.23
72591;SHT31;60625;51.212;5.952;2023-09-19T10:54:06;20.34;59.26
72591;SHT31;60625;51.212;5.952;2023-09-19T10:59:17;20.57;58.26
72591;SHT31;60625;51.212;5.952;2023-09-19T11:04:30;20.80;58.28
72591;SHT31;60625;51.212;5.952;2023-09-19T11:09:45;20.95;56.88
72591;SHT31;60625;51.212;5.952;2023-09-19T11:14:54;21.13;56.17
72591;SHT31;60625;51.212;5.952;2023-09-19T11:30:30;21.45;53.44
72591;SHT31;60625;51.212;5.952;2023-09-19T11:47:15;21.81;53.10
72591;SHT31;60625;51.212;5.952;2023-09-19T11:51:52;22.02;53.88
72591;SHT31;60625;51.212;5.952;2023-09-19T11:56:55;22.11;52.88
72591;SHT31;60625;51.212;5.952;2023-09-19T12:01:59;22.16;52.48
72591;SHT31;60625;51.212;5.952;2023-09-19T12:07:04;22.28;52.28
72591;SHT31;60625;51.212;5.952;2023-09-19T12:12:10;22.42;51.69
72591;SHT31;60625;51.212;5.952;2023-09-19T12:17:17;22.47;51.49
72591;SHT31;60625;51.212;5.952;2023-09-19T12:22:18;22.54;51.33
72591;SHT31;60625;51.212;5.952;2023-09-19T12:27:21;22.51;50.63
72591;SHT31;60625;51.212;5.952;2023-09-19T12:32:34;22.51;51.34
72591;SHT31;60625;51.212;5.952;2023-09-19T12:37:37;22.53;51.15
72591;SHT31;60625;51.212;5.952;2023-09-19T12:42:37;22.35;51.65
72591;SHT31;60625;51.212;5.952;2023-09-19T12:47:39;22.24;51.82
72591;SHT31;60625;51.212;5.952;2023-09-19T12:52:49;22.36;52.56
72591;SHT31;60625;51.212;5.952;2023-09-19T13:03:39;22.27;52.51
72591;SHT31;60625;51.212;5.952;2023-09-19T13:08:37;22.03;52.23
72591;SHT31;60625;51.212;5.952;2023-09-19T13:13:42;21.81;52.85
72591;SHT31;60625;51.212;5.952;2023-09-19T13:18:47;21.76;53.60
72591;SHT31;60625;51.212;5.952;2023-09-19T13:23:52;21.72;53.60
72591;SHT31;60625;51.212;5.952;2023-09-19T13:29:00;21.60;53.46
72591;SHT31;60625;51.212;5.952;2023-09-19T13:34:01;21.54;53.65
72591;SHT31;60625;51.212;5.952;2023-09-19T13:39:01;21.57;53.82
72591;SHT31;60625;51.212;5.952;2023-09-19T13:44:02;21.70;54.03
72591;SHT31;60625;51.212;5.952;2023-09-19T13:49:04;21.74;53.78
72591;SHT31;60625;51.212;5.952;2023-09-19T13:54:05;21.75;53.81
72591;SHT31;60625;51.212;5.952;2023-09-19T13:59:06;21.65;53.38
72591;SHT31;60625;51.212;5.952;2023-09-19T14:04:06;21.60;54.02
72591;SHT31;60625;51.212;5.952;2023-09-19T14:09:07;21.68;54.53
72591;SHT31;60625;51.212;5.952;2023-09-19T14:14:08;21.64;54.13
72591;SHT31;60625;51.212;5.952;2023-09-19T14:19:08;21.52;54.59
72591;SHT31;60625;51.212;5.952;2023-09-19T14:24:10;21.33;54.53
72591;SHT31;60625;51.212;5.952;2023-09-19T14:29:12;21.12;55.10
72591;SHT31;60625;51.212;5.952;2023-09-19T14:34:13;21.05;55.99
72591;SHT31;60625;51.212;5.952;2023-09-19T14:39:15;20.99;56.08
72591;SHT31;60625;51.212;5.952;2023-09-19T14:44:15;20.92;56.21
72591;SHT31;60625;51.212;5.952;2023-09-19T14:49:16;20.85;56.73
72591;SHT31;60625;51.212;5.952;2023-09-19T14:54:17;20.79;57.26
72591;SHT31;60625;51.212;5.952;2023-09-19T14:59:17;20.75;57.01
72591;SHT31;60625;51.212;5.952;2023-09-19T15:04:18;20.71;57.13
72591;SHT31;60625;51.212;5.952;2023-09-19T15:09:18;20.76;57.29
72591;SHT31;60625;51.212;5.952;2023-09-19T15:14:19;20.89;57.44
72591;SHT31;60625;51.212;5.952;2023-09-19T15:19:21;21.13;57.04
72591;SHT31;60625;51.212;5.952;2023-09-19T15:24:22;21.13;56.33
72591;SHT31;60625;51.212;5.952;2023-09-19T15:29:23;21.21;56.35
72591;SHT31;60625;51.212;5.952;2023-09-19T15:34:25;21.28;56.11
72591;SHT31;60625;51.212;5.952;2023-09-19T15:39:25;21.14;56.37
72591;SHT31;60625;51.212;5.952;2023-09-19T15:44:26;21.03;56.97
72591;SHT31;60625;51.212;5.952;2023-09-19T15:49:29;20.99;57.38
72591;SHT31;60625;51.212;5.952;2023-09-19T15:54:29;21.07;57.53
72591;SHT31;60625;51.212;5.952;2023-09-19T15:59:32;21.17;56.74
72591;SHT31;60625;51.212;5.952;2023-09-19T16:04:33;21.08;56.65
72591;SHT31;60625;51.212;5.952;2023-09-19T16:09:34;20.97;57.53
72591;SHT31;60625;51.212;5.952;2023-09-19T16:14:36;20.81;57.33
72591;SHT31;60625;51.212;5.952;2023-09-19T16:19:37;20.65;57.63
72591;SHT31;60625;51.212;5.952;2023-09-19T16:24:38;20.52;57.92
72591;SHT31;60625;51.212;5.952;2023-09-19T16:29:38;20.41;58.38
72591;SHT31;60625;51.212;5.952;2023-09-19T16:34:39;20.31;58.56
72591;SHT31;60625;51.212;5.952;2023-09-19T16:39:39;20.23;58.54
72591;SHT31;60625;51.212;5.952;2023-09-19T16:44:41;20.18;58.87
72591;SHT31;60625;51.212;5.952;2023-09-19T16:49:42;20.14;59.13
72591;SHT31;60625;51.212;5.952;2023-09-19T16:54:42;20.10;59.25
72591;SHT31;60625;51.212;5.952;2023-09-19T16:59:43;20.05;59.73
72591;SHT31;60625;51.212;5.952;2023-09-19T17:04:43;19.99;60.03
72591;SHT31;60625;51.212;5.952;2023-09-19T17:09:43;19.94;60.10
72591;SHT31;60625;51.212;5.952;2023-09-19T17:14:44;19.90;60.17
72591;SHT31;60625;51.212;5.952;2023-09-19T17:19:44;19.87;60.22
72591;SHT31;60625;51.212;5.952;2023-09-19T17:24:44;19.82;60.44
72591;SHT31;60625;51.212;5.952;2023-09-19T17:29:46;19.78;60.85
72591;SHT31;60625;51.212;5.952;2023-09-19T17:34:47;19.75;60.90
72591;SHT31;60625;51.212;5.952;2023-09-19T17:39:49;19.70;61.06
72591;SHT31;60625;51.212;5.952;2023-09-19T17:44:50;19.66;61.12
72591;SHT31;60625;51.212;5.952;2023-09-19T17:49:51;19.62;61.28
72591;SHT31;60625;51.212;5.952;2023-09-19T17:54:51;19.59;61.69
72591;SHT31;60625;51.212;5.952;2023-09-19T17:59:52;19.56;62.04
72591;SHT31;60625;51.212;5.952;2023-09-19T18:04:52;19.51;62.24
72591;SHT31;60625;51.212;5.952;2023-09-19T18:09:53;19.47;62.35
72591;SHT31;60625;51.212;5.952;2023-09-19T18:14:53;19.45;62.36
72591;SHT31;60625;51.212;5.952;2023-09-19T18:19:54;19.43;62.51
72591;SHT31;60625;51.212;5.952;2023-09-19T18:24:54;19.39;62.58
72591;SHT31;60625;51.212;5.952;2023-09-19T18:29:55;19.35;62.51
72591;SHT31;60625;51.212;5.952;2023-09-19T18:34:56;19.30;62.49
72591;SHT31;60625;51.212;5.952;2023-09-19T18:39:57;19.27;62.69
72591;SHT31;60625;51.212;5.952;2023-09-19T18:44:57;19.24;62.74
72591;SHT31;60625;51.212;5.952;2023-09-19T18:49:58;19.21;62.89
72591;SHT31;60625;51.212;5.952;2023-09-19T18:54:58;19.19;63.06
72591;SHT31;60625;51.212;5.952;2023-09-19T19:00:00;19.16;63.10
72591;SHT31;60625;51.212;5.952;2023-09-19T19:05:00;19.15;63.15
72591;SHT31;60625;51.212;5.952;2023-09-19T19:10:01;19.11;63.35
72591;SHT31;60625;51.212;5.952;2023-09-19T19:15:05;19.08;63.56
72591;SHT31;60625;51.212;5.952;2023-09-19T19:20:06;19.07;63.60
72591;SHT31;60625;51.212;5.952;2023-09-19T19:25:10;19.05;63.99
72591;SHT31;60625;51.212;5.952;2023-09-19T19:30:11;18.99;64.94
72591;SHT31;60625;51.212;5.952;2023-09-19T19:35:11;18.93;65.46
72591;SHT31;60625;51.212;5.952;2023-09-19T19:40:13;18.86;65.87
72591;SHT31;60625;51.212;5.952;2023-09-19T19:45:13;18.78;66.21
72591;SHT31;60625;51.212;5.952;2023-09-19T19:50:14;18.71;66.39
72591;SHT31;60625;51.212;5.952;2023-09-19T19:55:16;18.67;66.54
72591;SHT31;60625;51.212;5.952;2023-09-19T20:00:17;18.64;66.42
72591;SHT31;60625;51.212;5.952;2023-09-19T20:05:20;18.63;66.47
72591;SHT31;60625;51.212;5.952;2023-09-19T20:10:21;18.63;66.28
72591;SHT31;60625;51.212;5.952;2023-09-19T20:15:22;18.63;66.18
72591;SHT31;60625;51.212;5.952;2023-09-19T20:20:25;18.64;65.98
72591;SHT31;60625;51.212;5.952;2023-09-19T20:25:27;18.66;65.82
72591;SHT31;60625;51.212;5.952;2023-09-19T20:30:28;18.67;65.77
72591;SHT31;60625;51.212;5.952;2023-09-19T20:35:29;18.67;65.69
72591;SHT31;60625;51.212;5.952;2023-09-19T20:40:29;18.66;65.68
72591;SHT31;60625;51.212;5.952;2023-09-19T20:45:30;18.65;65.73
72591;SHT31;60625;51.212;5.952;2023-09-19T20:50:33;18.62;65.85
72591;SHT31;60625;51.212;5.952;2023-09-19T20:55:34;18.59;66.00
72591;SHT31;60625;51.212;5.952;2023-09-19T21:00:40;18.59;66.09
72591;SHT31;60625;51.212;5.952;2023-09-19T21:05:41;18.59;66.13
72591;SHT31;60625;51.212;5.952;2023-09-19T21:10:42;18.59;66.17
72591;SHT31;60625;51.212;5.952;2023-09-19T21:15:42;18.59;66.19
72591;SHT31;60625;51.212;5.952;2023-09-19T21:20:43;18.55;66.42
72591;SHT31;60625;51.212;5.952;2023-09-19T21:25:52;18.53;66.56
72591;SHT31;60625;51.212;5.952;2023-09-19T21:30:59;18.49;66.68
72591;SHT31;60625;51.212;5.952;2023-09-19T21:36:04;18.47;66.87
72591;SHT31;60625;51.212;5.952;2023-09-19T21:41:10;18.44;67.04
72591;SHT31;60625;51.212;5.952;2023-09-19T21:46:16;18.43;67.13
72591;SHT31;60625;51.212;5.952;2023-09-19T21:51:18;18.42;67.24
72591;SHT31;60625;51.212;5.952;2023-09-19T21:56:19;18.42;67.36
72591;SHT31;60625;51.212;5.952;2023-09-19T22:01:20;18.45;67.44
72591;SHT31;60625;51.212;5.952;2023-09-19T22:06:28;18.48;67.45
72591;SHT31;60625;51.212;5.952;2023-09-19T22:11:30;18.49;67.51
72591;SHT31;60625;51.212;5.952;2023-09-19T22:16:31;18.53;67.54
72591;SHT31;60625;51.212;5.952;2023-09-19T22:21:32;18.56;67.57
72591;SHT31;60625;51.212;5.952;2023-09-19T22:26:37;18.58;67.63
72591;SHT31;60625;51.212;5.952;2023-09-19T22:31:39;18.58;67.68
72591;SHT31;60625;51.212;5.952;2023-09-19T22:36:42;18.59;67.78
72591;SHT31;60625;51.212;5.952;2023-09-19T22:41:44;18.60;67.79
72591;SHT31;60625;51.212;5.952;2023-09-19T22:46:45;18.59;67.78
72591;SHT31;60625;51.212;5.952;2023-09-19T22:51:48;18.57;67.93
72591;SHT31;60625;51.212;5.952;2023-09-19T22:56:54;18.53;67.97
72591;SHT31;60625;51.212;5.952;2023-09-19T23:01:56;18.50;67.98
72591;SHT31;60625;51.212;5.952;2023-09-19T23:06:57;18.46;67.97
72591;SHT31;60625;51.212;5.952;2023-09-19T23:12:05;18.42;68.04
72591;SHT31;60625;51.212;5.952;2023-09-19T23:17:07;18.36;68.14
72591;SHT31;60625;51.212;5.952;2023-09-19T23:22:14;18.32;68.32
72591;SHT31;60625;51.212;5.952;2023-09-19T23:27:18;18.28;68.43
72591;SHT31;60625;51.212;5.952;2023-09-19T23:32:34;18.23;68.63
72591;SHT31;60625;51.212;5.952;2023-09-19T23:37:35;18.18;68.75
72591;SHT31;60625;51.212;5.952;2023-09-19T23:42:35;18.16;68.93
72591;SHT31;60625;51.212;5.952;2023-09-19T23:47:36;18.10;69.14
72591;SHT31;60625;51.212;5.952;2023-09-19T23:52:36;18.06;69.46
72591;SHT31;60625;51.212;5.952;2023-09-19T23:57:37;18.02;69.76
